Ever Imperial — 3FDL — position and weather

sailwx.info

Track history (hours):
 
Tides and Currents Weather Stations Pressure Air Temp Water Temp Dewpoint Dewpoint Depression Visibility Wind Speed Wind Dir Waves Ship Positions

Ever Imperial

Last reported at 2017-Sep-20 16:26 UTC. Time now 2017-Oct-16 22:37 UTC.
Position S 27°46' E 153°56'.
Warning: this ship's position is 26 days out of date.

Length 229 m; draft 12.8 m.

Type: Cargo ship. MMSI: 352829000.

Date/timePositionNaut miles runAvg speedWind from/ knotsBaromVisibWave heightAir tempDewpointWater temp
2017-Sep-20 16:26S 27°46' E 153°56'712.0
2017-Sep-20 15:53S 27°53' E 153°56'511.9
2017-Sep-20 15:29S 27°58' E 153°56'611.9
2017-Sep-20 15:00S 28°03' E 153°56'1211.4
2017-Sep-20 13:59S 28°15' E 153°55'510.6
2017-Sep-20 13:30S 28°20' E 153°55'5 9.7
2017-Sep-20 13:01S 28°25' E 153°55'5 9.1
2017-Sep-20 12:30S 28°29' E 153°54'243 9.3
2017-Sep-19 10:17S 32°25' E 152°44'910.5
2017-Sep-19 09:28S 32°33' E 152°40'510.0
2017-Sep-19 09:00S 32°37' E 152°36'510.2
2017-Sep-19 08:31S 32°40' E 152°31'510.4
2017-Sep-19 08:01S 32°42' E 152°26'510.8
2017-Sep-19 07:31S 32°45' E 152°21'510.7
2017-Sep-19 07:01S 32°48' E 152°15'510.4
2017-Sep-19 06:30S 32°51' E 152°10'510.3
2017-Sep-19 06:01S 32°54' E 152°05'510.1
2017-Sep-19 05:30S 32°57' E 152°00'510.0
2017-Sep-19 05:01S 32°57' E 151°54'4 8.8
2017-Sep-19 04:31S 32°56' E 151°49'2 4.4
2017-Sep-19 04:01S 32°55' E 151°47'2 3.5
2017-Sep-19 03:31S 32°54' E 151°46'0 0.4
2017-Sep-19 03:00S 32°53' E 151°46'0 0.0
2017-Sep-19 02:30S 32°53' E 151°46'0 0.0
2017-Sep-19 02:00S 32°53' E 151°46'0 0.0
2017-Sep-19 01:30S 32°53' E 151°46'0 0.0
2017-Sep-19 00:51S 32°53' E 151°46'0 0.0
2017-Sep-19 00:30S 32°53' E 151°46'0 0.0
2017-Sep-19 00:00S 32°53' E 151°46'0 0.0
2017-Sep-18 23:30S 32°53' E 151°46'0 0.0
2017-Sep-18 23:00S 32°53' E 151°46'0 0.0
2017-Sep-18 22:30S 32°53' E 151°46'0 0.0
2017-Sep-18 22:00S 32°53' E 151°46'0 0.0
2017-Sep-18 21:30S 32°53' E 151°46'0 0.0
2017-Sep-18 21:00S 32°53' E 151°46'0 0.0
2017-Sep-18 20:30S 32°53' E 151°46'0 0.0
2017-Sep-18 20:00S 32°53' E 151°46'0 0.0
2017-Sep-18 19:27S 32°53' E 151°46'0 0.0
2017-Sep-18 19:00S 32°53' E 151°46'0 0.0
2017-Sep-18 18:24S 32°53' E 151°46'0 0.0
2017-Sep-18 18:00S 32°53' E 151°46'0 0.0
2017-Sep-18 17:30S 32°53' E 151°46'0 0.0
2017-Sep-18 17:00S 32°53' E 151°46'0 0.0
2017-Sep-18 16:30S 32°53' E 151°46'0 0.0
2017-Sep-18 16:00S 32°53' E 151°46'0 0.0
2017-Sep-18 15:30S 32°53' E 151°46'0 0.0
2017-Sep-18 15:00S 32°53' E 151°46'0 0.0
2017-Sep-18 14:30S 32°53' E 151°46'0 0.0
2017-Sep-18 14:00S 32°53' E 151°46'0 0.0
2017-Sep-18 13:30S 32°53' E 151°46'0 0.0
2017-Sep-18 13:00S 32°53' E 151°46'0 0.0
2017-Sep-18 12:30S 32°53' E 151°46'0 0.0
2017-Sep-18 12:00S 32°53' E 151°46'0 0.0
2017-Sep-18 10:42S 32°53' E 151°46'0 0.0
2017-Sep-18 10:30S 32°53' E 151°46'1 1.5
2017-Sep-18 10:00S 32°54' E 151°46'2 4.2
2017-Sep-18 09:30S 32°55' E 151°49'5 9.2
2017-Sep-18 09:01S 32°58' E 151°52'2 3.5
2017-Sep-18 08:30S 33°00' E 151°52'3 5.6
2017-Sep-18 08:00S 33°02' E 151°50'3 5.9
2017-Sep-18 07:30S 33°04' E 151°47'2 4.5
2017-Sep-18 06:59S 33°05' E 151°45'0 0.2
2017-Sep-18 06:29S 33°05' E 151°45'0 0.0
2017-Sep-18 05:59S 33°05' E 151°45'0 0.0
2017-Sep-18 05:29S 33°05' E 151°45'0 0.0
2017-Sep-18 04:59S 33°05' E 151°45'0 0.0
2017-Sep-18 04:29S 33°05' E 151°45'0 0.0
2017-Sep-18 03:59S 33°05' E 151°45'0 0.1
2017-Sep-18 03:29S 33°05' E 151°45'0 0.0
2017-Sep-18 02:59S 33°05' E 151°45'0 0.1
2017-Sep-18 02:29S 33°05' E 151°45'0 0.1
2017-Sep-18 01:59S 33°05' E 151°45'0 0.0
2017-Sep-17 23:53S 33°05' E 151°45'0 0.0
2017-Sep-17 22:23S 33°05' E 151°45'0 0.1
2017-Sep-17 21:59S 33°05' E 151°45'0 0.0
2017-Sep-17 21:29S 33°05' E 151°45'0 0.0
2017-Sep-17 20:59S 33°05' E 151°45'0 0.0
2017-Sep-17 20:29S 33°05' E 151°45'0 0.0
2017-Sep-17 19:59S 33°05' E 151°45'0 0.0
2017-Sep-17 19:29S 33°05' E 151°45'0 0.1
2017-Sep-17 18:59S 33°05' E 151°45'0 0.1
2017-Sep-17 18:23S 33°05' E 151°45'0 0.0
2017-Sep-17 17:47S 33°05' E 151°45'0 0.0
2017-Sep-17 17:29S 33°05' E 151°45'0 0.0
2017-Sep-17 16:56S 33°05' E 151°45'0 0.0
2017-Sep-17 16:26S 33°05' E 151°45'0 0.0
2017-Sep-17 15:56S 33°05' E 151°45'0 0.0
2017-Sep-17 15:29S 33°05' E 151°45'0 0.1
2017-Sep-17 14:59S 33°05' E 151°45'0 0.0
2017-Sep-17 14:29S 33°05' E 151°45'0 0.0
2017-Sep-17 13:59S 33°05' E 151°45'0 0.0
2017-Sep-17 13:29S 33°05' E 151°45'0 0.0
2017-Sep-17 12:59S 33°05' E 151°45'0 0.0
2017-Sep-17 12:26S 33°05' E 151°45'0 0.0
2017-Sep-16 05:32S 33°05' E 151°45'0 0.1
2017-Sep-16 05:29S 33°05' E 151°45'0 0.2
2017-Sep-16 04:44S 33°05' E 151°45'0 0.1
2017-Sep-16 04:29S 33°05' E 151°45'0 0.1
2017-Sep-16 03:53S 33°05' E 151°45'0 0.0
2017-Sep-16 03:29S 33°05' E 151°45'0 0.0
2017-Sep-16 02:59S 33°05' E 151°45'0 0.0
2017-Sep-16 02:29S 33°05' E 151°45'0 0.1
2017-Sep-16 01:59S 33°05' E 151°45'0 0.1
2017-Sep-16 01:23S 33°05' E 151°45'0 0.1
2017-Sep-16 00:59S 33°05' E 151°45'0 0.0
2017-Sep-16 00:29S 33°05' E 151°45'0 0.1
2017-Sep-15 23:59S 33°05' E 151°45'0 0.0
2017-Sep-15 23:29S 33°05' E 151°45'0 0.0
2017-Sep-15 22:53S 33°05' E 151°45'0 0.0
2017-Sep-15 22:29S 33°05' E 151°45'0 0.1
2017-Sep-15 21:59S 33°05' E 151°45'0 0.1
2017-Sep-15 21:29S 33°05' E 151°45'0 0.0
2017-Sep-15 20:59S 33°05' E 151°45'0 0.0
2017-Sep-15 20:29S 33°05' E 151°45'0 0.1
2017-Sep-15 19:59S 33°05' E 151°45'0 0.1
2017-Sep-15 19:29S 33°05' E 151°45'0 0.0
2017-Sep-15 18:59S 33°05' E 151°45'0 0.0
2017-Sep-15 17:59S 33°05' E 151°45'0 0.0
2017-Sep-15 17:20S 33°05' E 151°45'0 0.1
2017-Sep-15 16:59S 33°05' E 151°45'0 0.1
2017-Sep-15 16:29S 33°05' E 151°45'0 0.1
2017-Sep-15 15:56S 33°05' E 151°45'0 0.1
2017-Sep-15 15:29S 33°05' E 151°45'0 0.1
2017-Sep-15 14:59S 33°05' E 151°45'0 0.1
2017-Sep-15 14:29S 33°05' E 151°45'0 0.0
2017-Sep-15 13:59S 33°05' E 151°45'0 0.0
2017-Sep-15 13:29S 33°05' E 151°45'0 0.0
2017-Sep-15 12:59S 33°05' E 151°45'0 0.1
2017-Sep-15 12:29S 33°05' E 151°45'0 0.0
2017-Sep-15 11:59S 33°05' E 151°45'0 0.0
2017-Sep-15 08:44S 33°05' E 151°45'0 0.1
2017-Sep-15 08:02S 33°05' E 151°45'0 0.1
2017-Sep-15 07:56S 33°05' E 151°45'0 0.0
2017-Sep-15 07:29S 33°05' E 151°45'0 0.0
2017-Sep-15 00:32S 33°05' E 151°45'0 0.0
2017-Sep-15 00:29S 33°05' E 151°45'0 0.1
2017-Sep-14 23:20S 33°05' E 151°45'0 0.0
2017-Sep-14 21:41S 33°05' E 151°45'0 0.1
2017-Sep-14 21:17S 33°05' E 151°45'0 0.1
2017-Sep-14 20:59S 33°05' E 151°45'0 0.0
2017-Sep-14 20:29S 33°05' E 151°45'0 0.3
2017-Sep-14 20:00S 33°05' E 151°45'2 3.5
2017-Sep-14 19:30S 33°05' E 151°47'4 8.7
2017-Sep-14 19:00S 33°04' E 151°52'4 8.0
2017-Sep-14 18:30S 33°04' E 151°57'3 6.4
2017-Sep-14 18:00S 33°03' E 152°01'0 0.9
2017-Sep-14 17:30S 33°03' E 152°01'1 2.0
2017-Sep-14 17:00S 33°02' E 152°00'4 7.5
2017-Sep-14 16:30S 32°58' E 152°01'510.3
2017-Sep-14 16:00S 32°55' E 152°06'510.4
2017-Sep-14 15:30S 32°52' E 152°11'5 9.9
2017-Sep-14 15:00S 32°49' E 152°16'5 9.7
2017-Sep-14 14:30S 32°46' E 152°20'5 9.3
2017-Sep-14 14:00S 32°44' E 152°25'4 8.3
2017-Sep-14 13:30S 32°41' E 152°29'4 8.4
2017-Sep-14 13:00S 32°39' E 152°33'4 8.5
2017-Sep-14 12:30S 32°36' E 152°37'4 8.9
2017-Sep-14 12:00S 32°33' E 152°40'5 9.4
2017-Sep-14 11:30S 32°28' E 152°42'21811.1
2017-Sep-13 15:51S 28°58' E 153°50'1814.6
2017-Sep-13 14:39S 28°40' E 153°54'314.6
2017-Sep-13 14:26S 28°37' E 153°54'614.4
2017-Sep-13 14:00S 28°31' E 153°54'714.3
2017-Sep-13 13:30S 28°24' E 153°55'714.0
2017-Sep-13 13:00S 28°17' E 153°55'713.8
2017-Sep-13 12:29S 28°10' E 153°55'713.8
2017-Sep-13 11:59S 28°03' E 153°55'713.8
2017-Sep-13 11:30S 27°56' E 153°56'713.8
2017-Sep-13 11:00S 27°49' E 153°56'713.9
2017-Sep-13 10:30S 27°42' E 153°56'4014.0
2017-Sep-13 07:39S 27°02' E 153°58'  
Track history (hours):
 
Tides and Currents Weather Stations Pressure Air Temp Water Temp Dewpoint Dewpoint Depression Visibility Wind Speed Wind Dir Waves Ship Positions

Ever Imperial

Last reported at 2017-Sep-20 16:26 UTC. Time now 2017-Oct-16 22:37 UTC.
Position S 27°46' E 153°56'.
Warning: this ship's position is 26 days out of date.

Length 229 m; draft 12.8 m.

Type: Cargo ship. MMSI: 352829000.

Date/timePositionNaut miles runAvg speedWind from/ knotsBaromVisibWave heightAir tempDewpointWater temp
2017-Sep-20 16:26S 27°46' E 153°56'712.0
2017-Sep-20 15:53S 27°53' E 153°56'511.9
2017-Sep-20 15:29S 27°58' E 153°56'611.9
2017-Sep-20 15:00S 28°03' E 153°56'1211.4
2017-Sep-20 13:59S 28°15' E 153°55'510.6
2017-Sep-20 13:30S 28°20' E 153°55'5 9.7
2017-Sep-20 13:01S 28°25' E 153°55'5 9.1
2017-Sep-20 12:30S 28°29' E 153°54'243 9.3
2017-Sep-19 10:17S 32°25' E 152°44'910.5
2017-Sep-19 09:28S 32°33' E 152°40'510.0
2017-Sep-19 09:00S 32°37' E 152°36'510.2
2017-Sep-19 08:31S 32°40' E 152°31'510.4
2017-Sep-19 08:01S 32°42' E 152°26'510.8
2017-Sep-19 07:31S 32°45' E 152°21'510.7
2017-Sep-19 07:01S 32°48' E 152°15'510.4
2017-Sep-19 06:30S 32°51' E 152°10'510.3
2017-Sep-19 06:01S 32°54' E 152°05'510.1
2017-Sep-19 05:30S 32°57' E 152°00'510.0
2017-Sep-19 05:01S 32°57' E 151°54'4 8.8
2017-Sep-19 04:31S 32°56' E 151°49'2 4.4
2017-Sep-19 04:01S 32°55' E 151°47'2 3.5
2017-Sep-19 03:31S 32°54' E 151°46'0 0.4
2017-Sep-19 03:00S 32°53' E 151°46'0 0.0
2017-Sep-19 02:30S 32°53' E 151°46'0 0.0
2017-Sep-19 02:00S 32°53' E 151°46'0 0.0
2017-Sep-19 01:30S 32°53' E 151°46'0 0.0
2017-Sep-19 00:51S 32°53' E 151°46'0 0.0
2017-Sep-19 00:30S 32°53' E 151°46'0 0.0
2017-Sep-19 00:00S 32°53' E 151°46'0 0.0
2017-Sep-18 23:30S 32°53' E 151°46'0 0.0
2017-Sep-18 23:00S 32°53' E 151°46'0 0.0
2017-Sep-18 22:30S 32°53' E 151°46'0 0.0
2017-Sep-18 22:00S 32°53' E 151°46'0 0.0
2017-Sep-18 21:30S 32°53' E 151°46'0 0.0
2017-Sep-18 21:00S 32°53' E 151°46'0 0.0
2017-Sep-18 20:30S 32°53' E 151°46'0 0.0
2017-Sep-18 20:00S 32°53' E 151°46'0 0.0
2017-Sep-18 19:27S 32°53' E 151°46'0 0.0
2017-Sep-18 19:00S 32°53' E 151°46'0 0.0
2017-Sep-18 18:24S 32°53' E 151°46'0 0.0
2017-Sep-18 18:00S 32°53' E 151°46'0 0.0
2017-Sep-18 17:30S 32°53' E 151°46'0 0.0
2017-Sep-18 17:00S 32°53' E 151°46'0 0.0
2017-Sep-18 16:30S 32°53' E 151°46'0 0.0
2017-Sep-18 16:00S 32°53' E 151°46'0 0.0
2017-Sep-18 15:30S 32°53' E 151°46'0 0.0
2017-Sep-18 15:00S 32°53' E 151°46'0 0.0
2017-Sep-18 14:30S 32°53' E 151°46'0 0.0
2017-Sep-18 14:00S 32°53' E 151°46'0 0.0
2017-Sep-18 13:30S 32°53' E 151°46'0 0.0
2017-Sep-18 13:00S 32°53' E 151°46'0 0.0
2017-Sep-18 12:30S 32°53' E 151°46'0 0.0
2017-Sep-18 12:00S 32°53' E 151°46'0 0.0
2017-Sep-18 10:42S 32°53' E 151°46'0 0.0
2017-Sep-18 10:30S 32°53' E 151°46'1 1.5
2017-Sep-18 10:00S 32°54' E 151°46'2 4.2
2017-Sep-18 09:30S 32°55' E 151°49'5 9.2
2017-Sep-18 09:01S 32°58' E 151°52'2 3.5
2017-Sep-18 08:30S 33°00' E 151°52'3 5.6
2017-Sep-18 08:00S 33°02' E 151°50'3 5.9
2017-Sep-18 07:30S 33°04' E 151°47'2 4.5
2017-Sep-18 06:59S 33°05' E 151°45'0 0.2
2017-Sep-18 06:29S 33°05' E 151°45'0 0.0
2017-Sep-18 05:59S 33°05' E 151°45'0 0.0
2017-Sep-18 05:29S 33°05' E 151°45'0 0.0
2017-Sep-18 04:59S 33°05' E 151°45'0 0.0
2017-Sep-18 04:29S 33°05' E 151°45'0 0.0
2017-Sep-18 03:59S 33°05' E 151°45'0 0.1
2017-Sep-18 03:29S 33°05' E 151°45'0 0.0
2017-Sep-18 02:59S 33°05' E 151°45'0 0.1
2017-Sep-18 02:29S 33°05' E 151°45'0 0.1
2017-Sep-18 01:59S 33°05' E 151°45'0 0.0
2017-Sep-17 23:53S 33°05' E 151°45'0 0.0
2017-Sep-17 22:23S 33°05' E 151°45'0 0.1
2017-Sep-17 21:59S 33°05' E 151°45'0 0.0
2017-Sep-17 21:29S 33°05' E 151°45'0 0.0
2017-Sep-17 20:59S 33°05' E 151°45'0 0.0
2017-Sep-17 20:29S 33°05' E 151°45'0 0.0
2017-Sep-17 19:59S 33°05' E 151°45'0 0.0
2017-Sep-17 19:29S 33°05' E 151°45'0 0.1
2017-Sep-17 18:59S 33°05' E 151°45'0 0.1
2017-Sep-17 18:23S 33°05' E 151°45'0 0.0
2017-Sep-17 17:47S 33°05' E 151°45'0 0.0
2017-Sep-17 17:29S 33°05' E 151°45'0 0.0
2017-Sep-17 16:56S 33°05' E 151°45'0 0.0
2017-Sep-17 16:26S 33°05' E 151°45'0 0.0
2017-Sep-17 15:56S 33°05' E 151°45'0 0.0
2017-Sep-17 15:29S 33°05' E 151°45'0 0.1
2017-Sep-17 14:59S 33°05' E 151°45'0 0.0
2017-Sep-17 14:29S 33°05' E 151°45'0 0.0
2017-Sep-17 13:59S 33°05' E 151°45'0 0.0
2017-Sep-17 13:29S 33°05' E 151°45'0 0.0
2017-Sep-17 12:59S 33°05' E 151°45'0 0.0
2017-Sep-17 12:26S 33°05' E 151°45'0 0.0
2017-Sep-16 05:32S 33°05' E 151°45'0 0.1
2017-Sep-16 05:29S 33°05' E 151°45'0 0.2
2017-Sep-16 04:44S 33°05' E 151°45'0 0.1
2017-Sep-16 04:29S 33°05' E 151°45'0 0.1
2017-Sep-16 03:53S 33°05' E 151°45'0 0.0
2017-Sep-16 03:29S 33°05' E 151°45'0 0.0
2017-Sep-16 02:59S 33°05' E 151°45'0 0.0
2017-Sep-16 02:29S 33°05' E 151°45'0 0.1
2017-Sep-16 01:59S 33°05' E 151°45'0 0.1
2017-Sep-16 01:23S 33°05' E 151°45'0 0.1
2017-Sep-16 00:59S 33°05' E 151°45'0 0.0
2017-Sep-16 00:29S 33°05' E 151°45'0 0.1
2017-Sep-15 23:59S 33°05' E 151°45'0 0.0
2017-Sep-15 23:29S 33°05' E 151°45'0 0.0
2017-Sep-15 22:53S 33°05' E 151°45'0 0.0
2017-Sep-15 22:29S 33°05' E 151°45'0 0.1
2017-Sep-15 21:59S 33°05' E 151°45'0 0.1
2017-Sep-15 21:29S 33°05' E 151°45'0 0.0
2017-Sep-15 20:59S 33°05' E 151°45'0 0.0
2017-Sep-15 20:29S 33°05' E 151°45'0 0.1
2017-Sep-15 19:59S 33°05' E 151°45'0 0.1
2017-Sep-15 19:29S 33°05' E 151°45'0 0.0
2017-Sep-15 18:59S 33°05' E 151°45'0 0.0
2017-Sep-15 17:59S 33°05' E 151°45'0 0.0
2017-Sep-15 17:20S 33°05' E 151°45'0 0.1
2017-Sep-15 16:59S 33°05' E 151°45'0 0.1
2017-Sep-15 16:29S 33°05' E 151°45'0 0.1
2017-Sep-15 15:56S 33°05' E 151°45'0 0.1
2017-Sep-15 15:29S 33°05' E 151°45'0 0.1
2017-Sep-15 14:59S 33°05' E 151°45'0 0.1
2017-Sep-15 14:29S 33°05' E 151°45'0 0.0
2017-Sep-15 13:59S 33°05' E 151°45'0 0.0
2017-Sep-15 13:29S 33°05' E 151°45'0 0.0
2017-Sep-15 12:59S 33°05' E 151°45'0 0.1
2017-Sep-15 12:29S 33°05' E 151°45'0 0.0
2017-Sep-15 11:59S 33°05' E 151°45'0 0.0
2017-Sep-15 08:44S 33°05' E 151°45'0 0.1
2017-Sep-15 08:02S 33°05' E 151°45'0 0.1
2017-Sep-15 07:56S 33°05' E 151°45'0 0.0
2017-Sep-15 07:29S 33°05' E 151°45'0 0.0
2017-Sep-15 00:32S 33°05' E 151°45'0 0.0
2017-Sep-15 00:29S 33°05' E 151°45'0 0.1
2017-Sep-14 23:20S 33°05' E 151°45'0 0.0
2017-Sep-14 21:41S 33°05' E 151°45'0 0.1
2017-Sep-14 21:17S 33°05' E 151°45'0 0.1
2017-Sep-14 20:59S 33°05' E 151°45'0 0.0
2017-Sep-14 20:29S 33°05' E 151°45'0 0.3
2017-Sep-14 20:00S 33°05' E 151°45'2 3.5
2017-Sep-14 19:30S 33°05' E 151°47'4 8.7
2017-Sep-14 19:00S 33°04' E 151°52'4 8.0
2017-Sep-14 18:30S 33°04' E 151°57'3 6.4
2017-Sep-14 18:00S 33°03' E 152°01'0 0.9
2017-Sep-14 17:30S 33°03' E 152°01'1 2.0
2017-Sep-14 17:00S 33°02' E 152°00'4 7.5
2017-Sep-14 16:30S 32°58' E 152°01'510.3
2017-Sep-14 16:00S 32°55' E 152°06'510.4
2017-Sep-14 15:30S 32°52' E 152°11'5 9.9
2017-Sep-14 15:00S 32°49' E 152°16'5 9.7
2017-Sep-14 14:30S 32°46' E 152°20'5 9.3
2017-Sep-14 14:00S 32°44' E 152°25'4 8.3
2017-Sep-14 13:30S 32°41' E 152°29'4 8.4
2017-Sep-14 13:00S 32°39' E 152°33'4 8.5
2017-Sep-14 12:30S 32°36' E 152°37'4 8.9
2017-Sep-14 12:00S 32°33' E 152°40'5 9.4
2017-Sep-14 11:30S 32°28' E 152°42'21811.1
2017-Sep-13 15:51S 28°58' E 153°50'1814.6
2017-Sep-13 14:39S 28°40' E 153°54'314.6
2017-Sep-13 14:26S 28°37' E 153°54'614.4
2017-Sep-13 14:00S 28°31' E 153°54'714.3
2017-Sep-13 13:30S 28°24' E 153°55'714.0
2017-Sep-13 13:00S 28°17' E 153°55'713.8
2017-Sep-13 12:29S 28°10' E 153°55'713.8
2017-Sep-13 11:59S 28°03' E 153°55'713.8
2017-Sep-13 11:30S 27°56' E 153°56'713.8
2017-Sep-13 11:00S 27°49' E 153°56'713.9
2017-Sep-13 10:30S 27°42' E 153°56'4014.0
2017-Sep-13 07:39S 27°02' E 153°58'  

Dump ship's entire track history